Terminal Aerodrome Forecast
Issued by NWS

Home | Current Version | Previous Version | Text Only | Print | Product List | Glossary On
Versions: 1 2 3 4 5 6 7 8 9 10 11 12 13 14 15 16
878
FTUS43 KIND 122324
TAFLAF
TAF
KLAF 122324Z 1300/1324 31009KT P6SM SCT250
     FM130200 29005KT P6SM FEW250
     FM130800 VRB03KT P6SM BKN100
     FM131800 21017KT P6SM BKN200
     FM132100 25014KT P6SM OVC030
      AMD LTD TO CLD VIS AND WIND 1302/1314=

USA.gov is the U.S. government's official web portal to all federal, state and local government web resources and services.